Kanosh, Utah
Current Conditions -  °F | °C
As of 7:55 AM on Thursday 30 Oct 2014 (Local Time) from KDTA Reporting Station
Clear Clear  
Wind Chill: 35°   Ceiling: Unl
Heat Index: 38°   Visibility: 10mi
Dew Point: 20°   Wind: 5mph
Humidity: 48%   Direction: 50°NE
Pressure: 30.26"   Gusts: NA
Location:  38.8°N, 112.44°W
Report Text: KDTA 301355Z AUTO 05004KT 10SM CLR 04/M06 A3026 RMK AO1 T00351065
Loading
Personal Weather Stations






























Interactive Weather Map
Tropical Storm Tracking
New forecast layout! Learn more

10-Day Weather Forecast

Advertisements
Track Severe Weather on mobile